createdAt,value
2019-01-20T00:02:29.649Z,73.10
2019-01-20T00:04:59.855Z,72.50
2019-01-20T00:07:30.047Z,72.40
2019-01-20T00:10:00.258Z,73.10
2019-01-20T00:12:30.377Z,72.60
2019-01-20T00:15:00.582Z,72.40
2019-01-20T00:17:30.818Z,72.60
2019-01-20T00:20:00.988Z,72.30
2019-01-20T00:22:31.162Z,72.30
2019-01-20T00:25:01.348Z,72.10
2019-01-20T00:27:31.547Z,72.00
2019-01-20T00:30:01.684Z,71.80
2019-01-20T00:32:31.858Z,72.10
2019-01-20T00:35:02.076Z,73.30
2019-01-20T00:37:32.206Z,72.70
2019-01-20T00:40:02.653Z,72.50
2019-01-20T00:42:32.829Z,72.50
2019-01-20T00:45:03.307Z,72.50
2019-01-20T00:47:33.623Z,73.40
2019-01-20T00:50:04.441Z,74.60
2019-01-20T00:52:34.598Z,74.50
2019-01-20T00:55:07.683Z,74.60
2019-01-20T00:57:38.622Z,74.10
2019-01-20T01:00:14.561Z,73.80
2019-01-20T01:02:44.971Z,73.60
2019-01-20T01:05:16.368Z,73.50
2019-01-20T01:07:46.807Z,74.30
2019-01-20T01:10:17.522Z,73.30
2019-01-20T01:12:48.851Z,73.50
2019-01-20T01:15:19.340Z,73.60
2019-01-20T01:17:49.486Z,73.70
2019-01-20T01:20:21.009Z,73.90
2019-01-20T01:22:51.167Z,73.90
2019-01-20T01:25:21.563Z,73.50
2019-01-20T01:27:51.799Z,73.50
2019-01-20T01:30:24.535Z,73.40
2019-01-20T01:32:54.701Z,74.10
2019-01-20T01:35:24.875Z,73.90
2019-01-20T01:37:55.562Z,74.10
2019-01-20T01:40:25.706Z,74.40
2019-01-20T01:42:55.843Z,74.30
2019-01-20T01:45:26.007Z,74.20
2019-01-20T01:47:56.148Z,73.80
2019-01-20T01:50:26.324Z,73.90
2019-01-20T01:52:56.479Z,73.80
2019-01-20T01:55:26.642Z,74.20
2019-01-20T01:57:56.836Z,74.20
2019-01-20T02:00:26.957Z,75.10
2019-01-20T02:02:57.188Z,74.50
2019-01-20T02:05:27.415Z,74.00
2019-01-20T02:07:57.667Z,73.70
2019-01-20T02:10:27.831Z,73.80
2019-01-20T02:12:58.088Z,74.80
2019-01-20T02:15:28.324Z,73.70
2019-01-20T02:17:58.488Z,73.90
2019-01-20T02:20:28.706Z,73.90
2019-01-20T02:22:58.907Z,74.30
2019-01-20T02:25:29.046Z,73.90
2019-01-20T02:27:59.290Z,74.10
2019-01-20T02:30:30.193Z,74.10
2019-01-20T02:33:01.308Z,73.90
2019-01-20T02:35:31.446Z,74.10
2019-01-20T02:38:01.607Z,74.00
2019-01-20T02:40:31.747Z,74.30
2019-01-20T02:43:02.037Z,75.40
2019-01-20T02:45:32.518Z,74.50
2019-01-20T02:48:02.659Z,75.30
2019-01-20T02:50:32.829Z,75.00
2019-01-20T02:53:03.014Z,74.50
2019-01-20T02:55:33.193Z,74.50
2019-01-20T02:58:03.359Z,74.80
2019-01-20T03:00:33.540Z,75.70
2019-01-20T03:03:03.680Z,76.20
2019-01-20T03:05:33.875Z,76.60
2019-01-20T03:08:04.072Z,76.90
2019-01-20T03:10:34.596Z,77.10
2019-01-20T03:13:04.774Z,76.30
2019-01-20T03:15:34.932Z,76.40
2019-01-20T03:18:06.278Z,76.20
2019-01-20T03:20:36.422Z,76.20
2019-01-20T03:23:06.565Z,76.40
2019-01-20T03:25:36.738Z,76.30
2019-01-20T03:28:06.953Z,76.30
2019-01-20T03:30:37.103Z,75.90
2019-01-20T03:33:07.262Z,76.20
2019-01-20T03:35:38.466Z,76.40
2019-01-20T03:38:08.625Z,76.70
2019-01-20T03:40:38.787Z,77.00
2019-01-20T03:43:08.934Z,76.90
2019-01-20T03:45:39.086Z,77.40
2019-01-20T03:48:09.237Z,76.70
2019-01-20T03:50:39.381Z,76.50
2019-01-20T03:53:09.553Z,76.40
2019-01-20T03:55:39.717Z,76.50
2019-01-20T03:58:09.906Z,76.30
2019-01-20T04:00:40.058Z,76.90
2019-01-20T04:03:10.784Z,78.40
2019-01-20T04:05:40.954Z,78.30
2019-01-20T04:08:11.238Z,78.40
2019-01-20T04:10:41.442Z,77.70
2019-01-20T04:13:11.650Z,77.80
2019-01-20T04:15:41.792Z,77.80
2019-01-20T04:18:11.947Z,77.70
2019-01-20T04:20:42.085Z,77.50
2019-01-20T04:23:12.281Z,77.60
2019-01-20T04:25:42.418Z,77.40
2019-01-20T04:28:12.625Z,77.00
2019-01-20T04:30:42.819Z,77.90
2019-01-20T04:33:13.035Z,77.00
2019-01-20T04:35:43.135Z,77.10
2019-01-20T04:38:13.290Z,76.60
2019-01-20T04:40:47.677Z,76.10
2019-01-20T04:43:17.926Z,77.00
2019-01-20T04:45:48.069Z,75.50
2019-01-20T04:48:18.235Z,75.50
2019-01-20T04:50:48.374Z,75.50
2019-01-20T04:53:18.535Z,75.40
2019-01-20T04:55:48.679Z,75.50
2019-01-20T04:58:19.101Z,75.60
2019-01-20T05:00:49.273Z,75.10
2019-01-20T05:03:19.447Z,75.20
2019-01-20T05:05:49.592Z,75.30
2019-01-20T05:08:19.749Z,75.00
2019-01-20T05:10:49.952Z,75.40
2019-01-20T05:13:20.099Z,75.40
2019-01-20T05:15:50.308Z,75.80
2019-01-20T05:18:20.480Z,75.70
2019-01-20T05:20:50.655Z,75.80
2019-01-20T05:23:20.828Z,76.00
2019-01-20T05:25:51.022Z,76.40
2019-01-20T05:28:21.523Z,76.30
2019-01-20T05:30:51.672Z,77.30
2019-01-20T05:33:21.877Z,76.80
2019-01-20T05:35:52.023Z,77.00
2019-01-20T05:38:22.244Z,77.60
2019-01-20T05:40:52.427Z,77.50
2019-01-20T05:43:22.572Z,77.40
2019-01-20T05:45:52.728Z,77.30
2019-01-20T05:48:22.885Z,77.30
2019-01-20T05:50:53.047Z,77.80
2019-01-20T05:53:23.247Z,77.90
2019-01-20T05:55:53.378Z,78.20
2019-01-20T05:58:23.542Z,78.00
2019-01-20T06:00:53.724Z,78.20
2019-01-20T06:03:23.862Z,78.30
2019-01-20T06:05:54.056Z,78.20
2019-01-20T06:08:24.233Z,78.20
2019-01-20T06:10:54.371Z,78.30
2019-01-20T06:13:24.517Z,78.60
2019-01-20T06:15:54.729Z,78.90
2019-01-20T06:18:24.905Z,78.80
2019-01-20T06:20:55.075Z,79.00
2019-01-20T06:23:25.257Z,79.10
2019-01-20T06:25:55.444Z,79.00
2019-01-20T06:28:25.567Z,79.40
2019-01-20T06:30:55.705Z,79.60
2019-01-20T06:33:25.882Z,79.60
2019-01-20T06:35:56.131Z,79.70
2019-01-20T06:38:26.269Z,79.70
2019-01-20T06:40:57.000Z,80.00
2019-01-20T06:43:27.179Z,80.10
2019-01-20T06:45:57.357Z,80.40
2019-01-20T06:48:27.526Z,80.50
2019-01-20T06:50:57.671Z,80.40
2019-01-20T06:53:27.842Z,80.50
2019-01-20T06:55:58.039Z,80.40
2019-01-20T06:58:28.486Z,80.30
2019-01-20T07:00:58.619Z,80.30
2019-01-20T07:03:28.807Z,80.60
2019-01-20T07:05:58.972Z,80.50
2019-01-20T07:08:29.159Z,80.80
2019-01-20T07:10:59.314Z,80.80
2019-01-20T07:13:29.555Z,80.60
2019-01-20T07:15:59.703Z,80.80
2019-01-20T07:18:29.863Z,80.40
2019-01-20T07:21:00.013Z,80.00
2019-01-20T07:23:30.254Z,80.00
2019-01-20T07:26:01.319Z,79.60
2019-01-20T07:28:31.464Z,79.90
2019-01-20T07:31:01.611Z,80.00
2019-01-20T07:33:31.739Z,80.50
2019-01-20T07:36:01.930Z,80.30
2019-01-20T07:38:32.105Z,80.10
2019-01-20T07:41:02.335Z,80.10
2019-01-20T07:43:32.482Z,79.60
2019-01-20T07:46:02.641Z,79.10
2019-01-20T07:48:32.769Z,79.50
2019-01-20T07:51:02.943Z,79.20
2019-01-20T07:53:33.192Z,78.40
2019-01-20T07:56:03.379Z,78.30
2019-01-20T07:58:33.598Z,77.90
2019-01-20T08:01:03.797Z,77.90
2019-01-20T08:03:33.927Z,79.00
2019-01-20T08:06:04.092Z,78.10
2019-01-20T08:08:34.288Z,77.60
2019-01-20T08:11:04.605Z,77.70
2019-01-20T08:13:34.744Z,74.90
2019-01-20T08:16:05.221Z,74.10
2019-01-20T08:18:35.379Z,71.50
2019-01-20T08:21:05.515Z,68.60
2019-01-20T08:23:35.721Z,67.10
2019-01-20T08:26:06.355Z,65.50
2019-01-20T08:28:36.496Z,63.00
2019-01-20T08:31:06.708Z,60.60
2019-01-20T08:33:36.879Z,59.60
2019-01-20T08:36:07.014Z,57.50
2019-01-20T08:38:37.208Z,57.00
2019-01-20T08:41:07.372Z,56.10
2019-01-20T08:43:38.348Z,55.80
2019-01-20T08:46:25.429Z,55.90
2019-01-20T08:48:55.720Z,55.70
2019-01-20T08:51:25.863Z,55.20
2019-01-20T08:53:56.011Z,53.70
2019-01-20T08:56:26.187Z,53.00
2019-01-20T08:58:56.357Z,52.70
2019-01-20T09:01:26.525Z,51.60
2019-01-20T09:03:56.665Z,51.50
2019-01-20T09:06:26.839Z,49.90
2019-01-20T09:08:57.012Z,48.70
2019-01-20T09:11:27.156Z,48.80
2019-01-20T09:13:57.322Z,47.90
2019-01-20T09:16:27.484Z,47.10
2019-01-20T09:18:57.624Z,46.20
2019-01-20T09:21:27.776Z,45.80
2019-01-20T09:23:57.980Z,45.50
2019-01-20T09:26:28.130Z,46.00
2019-01-20T09:28:58.260Z,46.00
2019-01-20T09:31:28.425Z,45.90
2019-01-20T09:33:58.584Z,45.40
2019-01-20T09:36:28.714Z,45.30
2019-01-20T09:38:59.189Z,46.20
2019-01-20T09:41:29.349Z,44.90
2019-01-20T09:43:59.856Z,44.60
2019-01-20T09:46:30.073Z,44.30
2019-01-20T09:49:00.244Z,44.10
2019-01-20T09:51:30.420Z,44.00
2019-01-20T09:54:00.788Z,43.00
2019-01-20T09:56:30.991Z,42.80
2019-01-20T09:59:01.127Z,42.60
2019-01-20T10:01:31.324Z,42.70
2019-01-20T10:04:01.459Z,44.80
2019-01-20T10:06:31.619Z,42.40
2019-01-20T10:09:01.756Z,41.70
2019-01-20T10:11:31.923Z,41.40
2019-01-20T10:14:02.127Z,40.80
2019-01-20T10:16:32.365Z,40.40
2019-01-20T10:19:02.549Z,40.00
2019-01-20T10:21:32.706Z,40.80
2019-01-20T10:24:02.855Z,40.00
2019-01-20T10:26:33.032Z,40.00
2019-01-20T10:29:03.213Z,40.90
2019-01-20T10:31:33.392Z,38.80
2019-01-20T10:34:03.514Z,38.50
2019-01-20T10:36:33.665Z,37.60
2019-01-20T10:39:06.100Z,36.90
2019-01-20T10:41:36.380Z,36.50
2019-01-20T10:44:06.589Z,35.00
2019-01-20T10:46:36.749Z,34.50
2019-01-20T10:49:06.879Z,34.60
2019-01-20T10:51:37.068Z,33.60
2019-01-20T10:54:07.335Z,32.20
2019-01-20T10:56:37.565Z,30.40
2019-01-20T10:59:07.730Z,30.40
2019-01-20T11:01:37.927Z,28.90
2019-01-20T11:04:08.158Z,30.10
2019-01-20T11:06:38.342Z,29.30
2019-01-20T11:09:09.326Z,29.50
2019-01-20T11:11:39.516Z,28.40
2019-01-20T11:14:09.853Z,29.00
2019-01-20T11:16:40.072Z,28.80
2019-01-20T11:19:10.244Z,28.90
2019-01-20T11:21:40.413Z,29.00
2019-01-20T11:24:10.756Z,28.40
2019-01-20T11:26:42.399Z,27.60
2019-01-20T11:29:12.541Z,27.90
2019-01-20T11:31:42.662Z,28.50
2019-01-20T11:34:12.853Z,28.70
2019-01-20T11:36:42.999Z,29.30
2019-01-20T11:39:13.133Z,28.90
2019-01-20T11:41:43.332Z,29.60
2019-01-20T11:44:17.167Z,28.30
2019-01-20T11:46:45.437Z,28.60
2019-01-20T11:49:15.623Z,28.90
2019-01-20T11:51:45.838Z,29.40
2019-01-20T11:54:15.989Z,30.30
2019-01-20T11:56:46.235Z,30.90
2019-01-20T11:59:16.569Z,30.80
2019-01-20T12:01:46.739Z,32.10
2019-01-20T12:04:16.980Z,32.50
2019-01-20T12:06:47.116Z,32.30
2019-01-20T12:09:17.295Z,31.90
2019-01-20T12:11:47.439Z,32.10
2019-01-20T12:14:23.832Z,32.50
2019-01-20T12:16:49.472Z,32.00
2019-01-20T12:19:19.601Z,30.80
2019-01-20T12:21:49.808Z,31.40
2019-01-20T12:24:19.936Z,30.70
2019-01-20T12:26:50.135Z,30.80
2019-01-20T12:29:20.395Z,29.10
2019-01-20T12:31:50.605Z,29.00
2019-01-20T12:34:20.824Z,29.20
2019-01-20T12:36:51.166Z,28.60
2019-01-20T12:39:21.364Z,28.10
2019-01-20T12:41:51.565Z,28.30
2019-01-20T12:44:21.734Z,30.40
2019-01-20T12:46:52.229Z,28.90
2019-01-20T12:49:23.099Z,29.20
2019-01-20T12:51:53.257Z,28.60
2019-01-20T12:54:23.427Z,28.80
2019-01-20T12:56:53.596Z,30.10
2019-01-20T12:59:23.740Z,30.20
2019-01-20T13:01:53.914Z,29.30
2019-01-20T13:04:24.118Z,30.30
2019-01-20T13:06:54.272Z,31.10
2019-01-20T13:09:24.449Z,32.10
2019-01-20T13:11:54.629Z,34.50
2019-01-20T13:14:24.781Z,35.60
2019-01-20T13:16:54.944Z,36.20
2019-01-20T13:19:25.129Z,36.50
2019-01-20T13:21:55.309Z,36.60
2019-01-20T13:24:25.487Z,35.90
2019-01-20T13:26:55.664Z,35.30
2019-01-20T13:29:25.829Z,34.50
2019-01-20T13:31:55.988Z,33.90
2019-01-20T13:34:26.161Z,34.20
2019-01-20T13:36:56.309Z,34.40
2019-01-20T13:39:26.486Z,34.20
2019-01-20T13:41:56.679Z,35.10
2019-01-20T13:44:26.919Z,36.30
2019-01-20T13:46:57.102Z,36.60
2019-01-20T13:49:27.239Z,37.10
2019-01-20T13:51:57.498Z,36.50
2019-01-20T13:54:28.036Z,37.00
2019-01-20T13:56:58.194Z,37.10
2019-01-20T13:59:28.384Z,37.70
2019-01-20T14:01:58.530Z,38.30
2019-01-20T14:04:28.777Z,38.40
2019-01-20T14:06:58.998Z,38.50
2019-01-20T14:09:29.133Z,39.60
2019-01-20T14:11:59.455Z,39.90
2019-01-20T14:14:29.584Z,41.00
2019-01-20T14:16:59.755Z,41.00
2019-01-20T14:19:29.896Z,40.20
2019-01-20T14:22:00.037Z,40.10
2019-01-20T14:24:30.215Z,40.50
2019-01-20T14:27:00.434Z,41.10
2019-01-20T14:29:30.604Z,41.30
2019-01-20T14:32:00.762Z,41.90
2019-01-20T14:34:30.944Z,43.00
2019-01-20T14:37:01.140Z,43.80
2019-01-20T14:39:31.304Z,44.40
2019-01-20T14:42:01.485Z,45.30
2019-01-20T14:44:31.634Z,45.90
2019-01-20T14:47:01.853Z,47.10
2019-01-20T14:49:32.017Z,48.00
2019-01-20T14:52:02.170Z,47.90
2019-01-20T14:54:32.366Z,48.40
2019-01-20T14:57:02.544Z,48.80
2019-01-20T14:59:32.686Z,49.00
2019-01-20T15:02:02.879Z,49.40
2019-01-20T15:04:33.023Z,50.10
2019-01-20T15:07:03.220Z,50.20
2019-01-20T15:09:33.401Z,51.00
2019-01-20T15:12:03.534Z,51.10
2019-01-20T15:14:33.713Z,51.20
2019-01-20T15:17:04.201Z,51.70
2019-01-20T15:19:34.569Z,52.10
2019-01-20T15:22:04.797Z,52.30
2019-01-20T15:24:34.945Z,53.30
2019-01-20T15:27:05.152Z,52.80
2019-01-20T15:29:35.321Z,53.30
2019-01-20T15:32:05.570Z,53.60
2019-01-20T15:34:35.756Z,54.60
2019-01-20T15:37:06.036Z,54.50
2019-01-20T15:39:36.321Z,54.80
2019-01-20T15:42:06.510Z,54.90
2019-01-20T15:44:36.711Z,55.40
2019-01-20T15:47:07.216Z,55.80
2019-01-20T15:49:37.369Z,56.20
2019-01-20T15:52:07.577Z,56.50
2019-01-20T15:54:37.711Z,56.60
2019-01-20T15:57:07.867Z,57.20
2019-01-20T15:59:38.110Z,57.90
2019-01-20T16:02:08.366Z,58.20
2019-01-20T16:04:38.525Z,58.60
2019-01-20T16:07:08.700Z,59.60
2019-01-20T16:09:38.919Z,59.20
2019-01-20T16:12:09.112Z,59.20
2019-01-20T16:14:39.258Z,59.50
2019-01-20T16:23:34.005Z,60.90
2019-01-20T16:26:04.414Z,61.20
2019-01-20T16:28:34.673Z,61.60
2019-01-20T16:31:04.897Z,61.80
2019-01-20T16:33:35.279Z,62.50
2019-01-20T16:36:05.448Z,62.80
2019-01-20T16:38:35.694Z,62.50
2019-01-20T16:41:05.901Z,63.70
2019-01-20T16:43:36.045Z,63.00
2019-01-20T16:46:06.321Z,62.90
2019-01-20T16:48:36.469Z,62.60
2019-01-20T16:51:06.596Z,62.60
2019-01-20T16:53:36.780Z,62.80
2019-01-20T16:56:07.048Z,63.10
2019-01-20T16:58:37.280Z,63.20
2019-01-20T17:01:07.507Z,62.90
2019-01-20T17:08:33.325Z,63.20
2019-01-20T17:11:58.239Z,63.30
2019-01-20T17:15:23.403Z,63.60
2019-01-20T17:17:53.642Z,63.90
2019-01-20T17:20:23.981Z,64.10
2019-01-20T17:22:54.175Z,64.70
2019-01-20T17:25:24.356Z,64.80
2019-01-20T17:27:54.509Z,65.10
2019-01-20T17:30:32.120Z,64.80
2019-01-20T17:33:02.862Z,64.90
2019-01-20T17:35:33.009Z,65.00
2019-01-20T17:38:03.236Z,65.20
2019-01-20T17:40:33.564Z,65.60
2019-01-20T17:43:04.287Z,65.40
2019-01-20T17:45:38.504Z,65.60
2019-01-20T17:48:08.654Z,65.80
2019-01-20T17:50:41.609Z,65.70
2019-01-20T17:53:12.330Z,65.80
2019-01-20T17:55:42.496Z,65.40
2019-01-20T17:58:12.828Z,65.50
2019-01-20T18:00:50.509Z,65.20
2019-01-20T18:03:20.806Z,65.60
2019-01-20T18:05:51.601Z,65.90
2019-01-20T18:08:21.853Z,66.10
2019-01-20T18:10:52.053Z,66.20
2019-01-20T18:13:23.401Z,67.20
2019-01-20T18:15:54.663Z,66.30
2019-01-20T18:18:25.067Z,66.50
2019-01-20T18:20:55.223Z,66.70
2019-01-20T18:23:25.380Z,66.90
2019-01-20T18:25:55.545Z,67.10
2019-01-20T18:28:25.707Z,67.30
2019-01-20T18:30:56.019Z,67.60
2019-01-20T18:33:26.177Z,67.80
2019-01-20T18:35:56.346Z,67.80
2019-01-20T18:38:26.495Z,68.00
2019-01-20T18:40:56.784Z,68.20
2019-01-20T18:43:26.971Z,68.00
2019-01-20T18:46:01.631Z,68.00
2019-01-20T18:48:28.992Z,68.20
2019-01-20T18:50:59.225Z,68.20
2019-01-20T18:53:29.357Z,68.40
2019-01-20T18:55:59.632Z,68.60
2019-01-20T18:58:29.810Z,68.70
2019-01-20T19:00:59.958Z,69.20
2019-01-20T19:03:30.122Z,69.80
2019-01-20T19:06:00.288Z,70.10
2019-01-20T19:08:30.462Z,70.30
2019-01-20T19:11:00.614Z,70.60
2019-01-20T19:13:30.806Z,70.80
2019-01-20T19:16:00.946Z,71.00
2019-01-20T19:18:31.112Z,71.20
2019-01-20T19:21:01.558Z,71.60
2019-01-20T19:23:31.726Z,72.00
2019-01-20T19:26:01.954Z,72.30
2019-01-20T19:28:32.086Z,72.30
2019-01-20T19:31:02.279Z,72.40
2019-01-20T19:33:32.479Z,72.80
2019-01-20T19:36:02.640Z,72.80
2019-01-20T19:38:32.791Z,73.00
2019-01-20T19:41:02.984Z,73.40
2019-01-20T19:43:33.146Z,73.80
2019-01-20T19:46:03.306Z,73.70
2019-01-20T19:48:33.701Z,74.10
2019-01-20T19:51:03.858Z,74.40
2019-01-20T19:53:34.047Z,74.20
2019-01-20T19:56:04.272Z,74.20
2019-01-20T19:58:34.527Z,74.50
2019-01-20T20:01:05.285Z,74.70
2019-01-20T20:03:35.427Z,74.60
2019-01-20T20:06:05.927Z,74.60
2019-01-20T20:08:36.250Z,74.70
2019-01-20T20:11:06.408Z,74.80
2019-01-20T20:13:36.581Z,75.00
2019-01-20T20:16:06.823Z,75.00
2019-01-20T20:18:36.980Z,75.30
2019-01-20T20:21:07.127Z,75.50
2019-01-20T20:23:37.352Z,75.50
2019-01-20T20:26:07.846Z,76.50
2019-01-20T20:28:38.028Z,76.00
2019-01-20T20:31:08.171Z,76.30
2019-01-20T20:33:38.321Z,76.80
2019-01-20T20:36:08.493Z,77.00
2019-01-20T20:38:38.646Z,76.40
2019-01-20T20:41:08.791Z,76.50
2019-01-20T20:43:38.957Z,76.70
2019-01-20T20:46:09.341Z,76.80
2019-01-20T20:48:39.557Z,77.40
2019-01-20T20:51:09.750Z,77.40
2019-01-20T20:53:39.900Z,77.00
2019-01-20T20:56:10.093Z,76.90
2019-01-20T20:58:40.255Z,77.20
2019-01-20T21:01:10.434Z,77.30
2019-01-20T21:03:40.650Z,77.50
2019-01-20T21:06:10.840Z,77.60
2019-01-20T21:08:41.012Z,77.80
2019-01-20T21:11:11.307Z,77.80
2019-01-20T21:13:41.493Z,78.10
2019-01-20T21:16:11.638Z,78.10
2019-01-20T21:18:41.874Z,78.60
2019-01-20T21:21:11.971Z,78.80
2019-01-20T21:23:42.151Z,79.10
2019-01-20T21:26:12.365Z,79.10
2019-01-20T21:28:42.521Z,79.00
2019-01-20T21:31:12.671Z,78.80
2019-01-20T21:33:42.879Z,78.50
2019-01-20T21:36:13.009Z,79.20
2019-01-20T21:38:43.225Z,78.00
2019-01-20T21:41:13.487Z,77.80
2019-01-20T21:43:43.879Z,77.50
2019-01-20T21:46:14.175Z,77.50
2019-01-20T21:48:44.364Z,77.70
2019-01-20T21:51:14.539Z,77.50
2019-01-20T21:53:44.686Z,77.30
2019-01-20T22:00:02.842Z,77.00
2019-01-20T22:02:33.019Z,77.70
2019-01-20T22:05:03.227Z,77.50
2019-01-20T22:07:33.460Z,77.40
2019-01-20T22:10:04.527Z,77.50
2019-01-20T22:12:34.670Z,77.30
2019-01-20T22:15:06.954Z,77.20
2019-01-20T22:17:38.895Z,77.40
2019-01-20T22:20:16.057Z,78.00
2019-01-20T22:22:46.568Z,78.00
2019-01-20T22:25:16.811Z,77.50
2019-01-20T22:27:46.970Z,77.50
2019-01-20T22:30:20.526Z,77.60
2019-01-20T22:32:50.678Z,78.10
2019-01-20T22:35:20.981Z,79.00
2019-01-20T22:37:51.187Z,78.40
2019-01-20T22:40:21.383Z,78.80
2019-01-20T22:42:51.498Z,79.00
2019-01-20T22:45:26.012Z,79.60
2019-01-20T22:47:56.181Z,79.90
2019-01-20T22:50:26.474Z,80.20
2019-01-20T22:52:56.675Z,80.50
2019-01-20T22:55:26.931Z,80.70
2019-01-20T22:57:57.027Z,80.70
2019-01-20T23:00:41.982Z,80.60
2019-01-20T23:03:12.243Z,80.60
2019-01-20T23:05:42.426Z,80.80
2019-01-20T23:08:12.661Z,80.80
2019-01-20T23:10:42.828Z,80.90
2019-01-20T23:13:13.002Z,80.80
2019-01-20T23:15:43.190Z,80.60
2019-01-20T23:18:13.352Z,80.20
2019-01-20T23:20:43.501Z,79.80
2019-01-20T23:23:13.669Z,80.00
2019-01-20T23:25:43.903Z,79.80
2019-01-20T23:28:14.381Z,80.00
2019-01-20T23:30:44.541Z,79.90
2019-01-20T23:33:14.701Z,80.30
2019-01-20T23:35:44.855Z,80.30
2019-01-20T23:38:15.044Z,80.60
2019-01-20T23:40:45.163Z,80.20
2019-01-20T23:43:15.332Z,80.00
2019-01-20T23:45:45.482Z,80.00
2019-01-20T23:48:15.710Z,79.80
2019-01-20T23:50:45.825Z,79.80
2019-01-20T23:53:16.051Z,79.70
2019-01-20T23:55:46.207Z,79.90
2019-01-20T23:58:16.374Z,79.50
